Wildrose, North Dakota
Current Conditions -  °F | °C
As of 7:55 AM on Friday 31 Oct 2014 (Local Time) from KD60 Reporting Station
Clear Clear  
Wind Chill: 10°   Ceiling: Unl
Heat Index: 25°   Visibility: 10mi
Dew Point: 25°   Wind: 22mph
Humidity: 100%   Direction: 150°SSE
Pressure: 30.35"   Gusts: 28mph
Location:  48.63°N, 103.18°W
Report Text: KD60 311255Z AUTO 15019G24KT 10SM CLR M04/M04 A3035 RMK AO2
Loading
Personal Weather Stations






























Interactive Weather Map
Tropical Storm Tracking
New forecast layout! Learn more

10-Day Weather Forecast

Advertisements
Track Severe Weather on mobile